sensor_id;sensor_type;location;lat;lon;timestamp;temperature;humidity
24049;DHT22;12250;50.956;4.746;2023-07-31T00:01:19;16.10;99.90
24049;DHT22;12250;50.956;4.746;2023-07-31T00:03:46;16.10;99.90
24049;DHT22;12250;50.956;4.746;2023-07-31T00:06:12;16.00;99.90
24049;DHT22;12250;50.956;4.746;2023-07-31T00:08:38;16.00;99.90
24049;DHT22;12250;50.956;4.746;2023-07-31T00:11:03;16.10;99.90
24049;DHT22;12250;50.956;4.746;2023-07-31T00:13:29;16.10;99.90
24049;DHT22;12250;50.956;4.746;2023-07-31T00:15:55;16.20;99.90
24049;DHT22;12250;50.956;4.746;2023-07-31T00:18:20;16.20;99.90
24049;DHT22;12250;50.956;4.746;2023-07-31T00:20:46;16.20;99.90
24049;DHT22;12250;50.956;4.746;2023-07-31T00:23:12;16.20;99.90
24049;DHT22;12250;50.956;4.746;2023-07-31T00:25:38;16.30;99.90
24049;DHT22;12250;50.956;4.746;2023-07-31T00:28:03;16.30;99.90
24049;DHT22;12250;50.956;4.746;2023-07-31T00:30:29;16.40;99.90
24049;DHT22;12250;50.956;4.746;2023-07-31T00:32:55;16.40;99.90
24049;DHT22;12250;50.956;4.746;2023-07-31T00:35:20;16.40;99.90
24049;DHT22;12250;50.956;4.746;2023-07-31T00:37:46;16.40;99.90
24049;DHT22;12250;50.956;4.746;2023-07-31T00:40:12;16.50;99.90
24049;DHT22;12250;50.956;4.746;2023-07-31T00:42:39;16.50;99.90
24049;DHT22;12250;50.956;4.746;2023-07-31T00:45:05;16.60;99.90
24049;DHT22;12250;50.956;4.746;2023-07-31T00:47:31;16.60;99.90
24049;DHT22;12250;50.956;4.746;2023-07-31T00:49:57;16.70;99.90
24049;DHT22;12250;50.956;4.746;2023-07-31T00:52:22;16.70;99.90
24049;DHT22;12250;50.956;4.746;2023-07-31T00:54:49;16.70;99.90
24049;DHT22;12250;50.956;4.746;2023-07-31T00:57:15;16.80;99.90
24049;DHT22;12250;50.956;4.746;2023-07-31T00:59:41;16.70;99.90
24049;DHT22;12250;50.956;4.746;2023-07-31T01:02:06;16.80;99.90
24049;DHT22;12250;50.956;4.746;2023-07-31T01:04:32;16.80;99.90
24049;DHT22;12250;50.956;4.746;2023-07-31T01:12:24;16.90;99.90
24049;DHT22;12250;50.956;4.746;2023-07-31T01:14:54;17.00;99.90
24049;DHT22;12250;50.956;4.746;2023-07-31T01:17:27;17.00;99.90
24049;DHT22;12250;50.956;4.746;2023-07-31T01:19:59;17.10;99.90
24049;DHT22;12250;50.956;4.746;2023-07-31T01:28:16;17.20;99.90
24049;DHT22;12250;50.956;4.746;2023-07-31T01:30:48;17.20;99.90
24049;DHT22;12250;50.956;4.746;2023-07-31T01:33:15;17.20;99.90
24049;DHT22;12250;50.956;4.746;2023-07-31T01:35:44;17.30;99.90
24049;DHT22;12250;50.956;4.746;2023-07-31T01:38:10;17.30;99.90
24049;DHT22;12250;50.956;4.746;2023-07-31T01:40:36;17.40;99.90
24049;DHT22;12250;50.956;4.746;2023-07-31T01:43:02;17.30;99.90
24049;DHT22;12250;50.956;4.746;2023-07-31T01:45:27;17.40;99.90
24049;DHT22;12250;50.956;4.746;2023-07-31T01:47:53;17.40;99.90
24049;DHT22;12250;50.956;4.746;2023-07-31T01:50:19;17.40;99.90
24049;DHT22;12250;50.956;4.746;2023-07-31T01:52:44;17.40;99.90
24049;DHT22;12250;50.956;4.746;2023-07-31T01:55:10;17.40;99.90
24049;DHT22;12250;50.956;4.746;2023-07-31T01:57:36;17.40;99.90
24049;DHT22;12250;50.956;4.746;2023-07-31T02:00:03;17.40;99.90
24049;DHT22;12250;50.956;4.746;2023-07-31T02:02:29;17.40;99.90
24049;DHT22;12250;50.956;4.746;2023-07-31T02:04:54;17.40;99.90
24049;DHT22;12250;50.956;4.746;2023-07-31T02:07:20;17.40;99.90
24049;DHT22;12250;50.956;4.746;2023-07-31T02:09:46;17.40;99.90
24049;DHT22;12250;50.956;4.746;2023-07-31T02:12:13;17.50;99.90
24049;DHT22;12250;50.956;4.746;2023-07-31T02:14:40;17.50;99.90
24049;DHT22;12250;50.956;4.746;2023-07-31T02:17:06;17.50;99.90
24049;DHT22;12250;50.956;4.746;2023-07-31T02:19:31;17.50;99.90
24049;DHT22;12250;50.956;4.746;2023-07-31T02:21:57;17.50;99.90
24049;DHT22;12250;50.956;4.746;2023-07-31T02:24:24;17.50;99.90
24049;DHT22;12250;50.956;4.746;2023-07-31T02:26:50;17.50;99.90
24049;DHT22;12250;50.956;4.746;2023-07-31T02:29:16;17.40;99.90
24049;DHT22;12250;50.956;4.746;2023-07-31T02:31:42;17.50;99.90
24049;DHT22;12250;50.956;4.746;2023-07-31T02:34:07;17.50;99.90
24049;DHT22;12250;50.956;4.746;2023-07-31T02:36:33;17.50;99.90
24049;DHT22;12250;50.956;4.746;2023-07-31T02:38:59;17.60;99.90
24049;DHT22;12250;50.956;4.746;2023-07-31T02:41:24;17.60;99.90
24049;DHT22;12250;50.956;4.746;2023-07-31T02:43:50;17.60;99.90
24049;DHT22;12250;50.956;4.746;2023-07-31T02:46:15;17.60;99.90
24049;DHT22;12250;50.956;4.746;2023-07-31T02:48:41;17.60;99.90
24049;DHT22;12250;50.956;4.746;2023-07-31T02:51:07;17.60;99.90
24049;DHT22;12250;50.956;4.746;2023-07-31T02:53:32;17.60;99.90
24049;DHT22;12250;50.956;4.746;2023-07-31T02:55:58;17.60;99.90
24049;DHT22;12250;50.956;4.746;2023-07-31T02:58:24;17.60;99.90
24049;DHT22;12250;50.956;4.746;2023-07-31T03:00:49;17.70;99.90
24049;DHT22;12250;50.956;4.746;2023-07-31T03:03:15;17.70;99.90
24049;DHT22;12250;50.956;4.746;2023-07-31T03:05:41;17.70;99.90
24049;DHT22;12250;50.956;4.746;2023-07-31T03:08:06;17.60;99.90
24049;DHT22;12250;50.956;4.746;2023-07-31T03:10:32;17.70;99.90
24049;DHT22;12250;50.956;4.746;2023-07-31T03:12:57;17.70;99.90
24049;DHT22;12250;50.956;4.746;2023-07-31T03:15:23;17.70;99.90
24049;DHT22;12250;50.956;4.746;2023-07-31T03:17:49;17.70;99.90
24049;DHT22;12250;50.956;4.746;2023-07-31T03:20:14;17.70;99.90
24049;DHT22;12250;50.956;4.746;2023-07-31T03:22:40;17.70;99.90
24049;DHT22;12250;50.956;4.746;2023-07-31T03:25:06;17.70;99.90
24049;DHT22;12250;50.956;4.746;2023-07-31T03:27:32;17.70;99.90
24049;DHT22;12250;50.956;4.746;2023-07-31T03:29:58;17.60;99.90
24049;DHT22;12250;50.956;4.746;2023-07-31T03:32:24;17.70;99.90
24049;DHT22;12250;50.956;4.746;2023-07-31T03:34:50;17.60;99.90
24049;DHT22;12250;50.956;4.746;2023-07-31T03:37:15;17.60;99.90
24049;DHT22;12250;50.956;4.746;2023-07-31T03:39:41;17.50;99.90
24049;DHT22;12250;50.956;4.746;2023-07-31T03:42:07;17.50;99.90
24049;DHT22;12250;50.956;4.746;2023-07-31T03:44:32;17.50;99.90
24049;DHT22;12250;50.956;4.746;2023-07-31T03:46:58;17.50;99.90
24049;DHT22;12250;50.956;4.746;2023-07-31T03:49:24;17.60;99.90
24049;DHT22;12250;50.956;4.746;2023-07-31T03:51:50;17.60;99.90
24049;DHT22;12250;50.956;4.746;2023-07-31T03:54:15;17.60;99.90
24049;DHT22;12250;50.956;4.746;2023-07-31T03:56:41;17.50;99.90
24049;DHT22;12250;50.956;4.746;2023-07-31T03:59:07;17.50;99.90
24049;DHT22;12250;50.956;4.746;2023-07-31T04:01:33;17.50;99.90
24049;DHT22;12250;50.956;4.746;2023-07-31T04:03:58;17.50;99.90
24049;DHT22;12250;50.956;4.746;2023-07-31T04:06:24;17.60;99.90
24049;DHT22;12250;50.956;4.746;2023-07-31T04:08:49;17.60;99.90
24049;DHT22;12250;50.956;4.746;2023-07-31T04:11:15;17.50;99.90
24049;DHT22;12250;50.956;4.746;2023-07-31T04:13:41;17.50;99.90
24049;DHT22;12250;50.956;4.746;2023-07-31T04:16:06;17.50;99.90
24049;DHT22;12250;50.956;4.746;2023-07-31T04:18:32;17.40;99.90
24049;DHT22;12250;50.956;4.746;2023-07-31T04:20:58;17.40;99.90
24049;DHT22;12250;50.956;4.746;2023-07-31T04:23:25;17.40;99.90
24049;DHT22;12250;50.956;4.746;2023-07-31T04:25:51;17.30;99.90
24049;DHT22;12250;50.956;4.746;2023-07-31T04:28:17;17.40;99.90
24049;DHT22;12250;50.956;4.746;2023-07-31T04:30:42;17.40;99.90
24049;DHT22;12250;50.956;4.746;2023-07-31T04:33:08;17.30;99.90
24049;DHT22;12250;50.956;4.746;2023-07-31T04:35:34;17.30;99.90
24049;DHT22;12250;50.956;4.746;2023-07-31T04:38:00;17.30;99.90
24049;DHT22;12250;50.956;4.746;2023-07-31T04:40:25;17.20;99.90
24049;DHT22;12250;50.956;4.746;2023-07-31T04:42:51;17.20;99.90
24049;DHT22;12250;50.956;4.746;2023-07-31T04:45:17;17.20;99.90
24049;DHT22;12250;50.956;4.746;2023-07-31T04:47:42;17.20;99.90
24049;DHT22;12250;50.956;4.746;2023-07-31T04:50:08;17.20;99.90
24049;DHT22;12250;50.956;4.746;2023-07-31T04:52:34;17.20;99.90
24049;DHT22;12250;50.956;4.746;2023-07-31T04:55:00;17.20;99.90
24049;DHT22;12250;50.956;4.746;2023-07-31T04:57:26;17.20;99.90
24049;DHT22;12250;50.956;4.746;2023-07-31T04:59:52;17.20;99.90
24049;DHT22;12250;50.956;4.746;2023-07-31T05:02:18;17.20;99.90
24049;DHT22;12250;50.956;4.746;2023-07-31T05:04:43;17.30;99.90
24049;DHT22;12250;50.956;4.746;2023-07-31T05:07:09;17.30;99.90
24049;DHT22;12250;50.956;4.746;2023-07-31T05:09:34;17.30;99.90
24049;DHT22;12250;50.956;4.746;2023-07-31T05:12:00;17.30;99.90
24049;DHT22;12250;50.956;4.746;2023-07-31T05:14:26;17.30;99.90
24049;DHT22;12250;50.956;4.746;2023-07-31T05:16:52;17.30;99.90
24049;DHT22;12250;50.956;4.746;2023-07-31T05:19:18;17.30;99.90
24049;DHT22;12250;50.956;4.746;2023-07-31T05:21:43;17.30;99.90
24049;DHT22;12250;50.956;4.746;2023-07-31T05:24:10;17.40;99.90
24049;DHT22;12250;50.956;4.746;2023-07-31T05:26:36;17.40;99.90
24049;DHT22;12250;50.956;4.746;2023-07-31T05:29:03;17.40;99.90
24049;DHT22;12250;50.956;4.746;2023-07-31T05:31:29;17.30;99.90
24049;DHT22;12250;50.956;4.746;2023-07-31T05:33:55;17.40;99.90
24049;DHT22;12250;50.956;4.746;2023-07-31T05:36:20;17.30;99.90
24049;DHT22;12250;50.956;4.746;2023-07-31T05:38:46;17.20;99.90
24049;DHT22;12250;50.956;4.746;2023-07-31T05:41:12;17.30;99.90
24049;DHT22;12250;50.956;4.746;2023-07-31T05:43:38;17.30;99.90
24049;DHT22;12250;50.956;4.746;2023-07-31T05:46:04;17.40;99.90
24049;DHT22;12250;50.956;4.746;2023-07-31T05:48:32;17.40;99.90
24049;DHT22;12250;50.956;4.746;2023-07-31T05:50:59;17.40;99.90
24049;DHT22;12250;50.956;4.746;2023-07-31T05:53:25;17.30;99.90
24049;DHT22;12250;50.956;4.746;2023-07-31T05:55:51;17.20;99.90
24049;DHT22;12250;50.956;4.746;2023-07-31T05:58:16;17.20;99.90
24049;DHT22;12250;50.956;4.746;2023-07-31T06:00:42;17.20;99.90
24049;DHT22;12250;50.956;4.746;2023-07-31T06:03:08;17.20;99.90
24049;DHT22;12250;50.956;4.746;2023-07-31T06:05:33;17.20;99.90
24049;DHT22;12250;50.956;4.746;2023-07-31T06:07:59;17.20;99.90
24049;DHT22;12250;50.956;4.746;2023-07-31T06:10:25;17.30;99.90
24049;DHT22;12250;50.956;4.746;2023-07-31T06:12:51;17.30;99.90
24049;DHT22;12250;50.956;4.746;2023-07-31T06:15:17;17.20;99.90
24049;DHT22;12250;50.956;4.746;2023-07-31T06:17:44;17.30;99.90
24049;DHT22;12250;50.956;4.746;2023-07-31T06:20:10;17.30;99.90
24049;DHT22;12250;50.956;4.746;2023-07-31T06:22:36;17.30;99.90
24049;DHT22;12250;50.956;4.746;2023-07-31T06:25:02;17.30;99.90
24049;DHT22;12250;50.956;4.746;2023-07-31T06:27:27;17.20;99.90
24049;DHT22;12250;50.956;4.746;2023-07-31T06:29:53;17.20;99.90
24049;DHT22;12250;50.956;4.746;2023-07-31T06:32:20;17.20;99.90
24049;DHT22;12250;50.956;4.746;2023-07-31T06:34:46;17.20;99.90
24049;DHT22;12250;50.956;4.746;2023-07-31T06:37:11;17.30;99.90
24049;DHT22;12250;50.956;4.746;2023-07-31T06:39:37;17.20;99.90
24049;DHT22;12250;50.956;4.746;2023-07-31T06:42:03;17.30;99.90
24049;DHT22;12250;50.956;4.746;2023-07-31T06:44:29;17.30;99.90
24049;DHT22;12250;50.956;4.746;2023-07-31T06:46:55;17.30;99.90
24049;DHT22;12250;50.956;4.746;2023-07-31T06:49:20;17.30;99.90
24049;DHT22;12250;50.956;4.746;2023-07-31T06:51:46;17.30;99.90
24049;DHT22;12250;50.956;4.746;2023-07-31T06:54:12;17.20;99.90
24049;DHT22;12250;50.956;4.746;2023-07-31T06:56:37;17.30;99.90
24049;DHT22;12250;50.956;4.746;2023-07-31T06:59:03;17.30;99.90
24049;DHT22;12250;50.956;4.746;2023-07-31T07:01:29;17.40;99.90
24049;DHT22;12250;50.956;4.746;2023-07-31T07:03:55;17.40;99.90
24049;DHT22;12250;50.956;4.746;2023-07-31T07:06:22;17.50;99.90
24049;DHT22;12250;50.956;4.746;2023-07-31T07:08:48;17.50;99.90
24049;DHT22;12250;50.956;4.746;2023-07-31T07:11:13;17.60;99.90
24049;DHT22;12250;50.956;4.746;2023-07-31T07:13:39;17.60;99.90
24049;DHT22;12250;50.956;4.746;2023-07-31T07:16:05;17.60;99.90
24049;DHT22;12250;50.956;4.746;2023-07-31T07:18:30;17.80;99.90
24049;DHT22;12250;50.956;4.746;2023-07-31T07:20:56;17.90;99.90
24049;DHT22;12250;50.956;4.746;2023-07-31T07:23:24;18.00;99.90
24049;DHT22;12250;50.956;4.746;2023-07-31T07:25:49;18.00;99.90
24049;DHT22;12250;50.956;4.746;2023-07-31T07:28:16;18.20;99.90
24049;DHT22;12250;50.956;4.746;2023-07-31T07:30:42;18.30;99.90
24049;DHT22;12250;50.956;4.746;2023-07-31T07:33:07;18.50;99.90
24049;DHT22;12250;50.956;4.746;2023-07-31T07:35:34;18.70;99.90
24049;DHT22;12250;50.956;4.746;2023-07-31T07:38:01;19.10;99.90
24049;DHT22;12250;50.956;4.746;2023-07-31T07:40:27;19.20;99.90
24049;DHT22;12250;50.956;4.746;2023-07-31T07:42:52;19.50;99.90
24049;DHT22;12250;50.956;4.746;2023-07-31T07:45:18;19.60;99.90
24049;DHT22;12250;50.956;4.746;2023-07-31T07:47:44;19.60;99.90
24049;DHT22;12250;50.956;4.746;2023-07-31T07:50:09;19.50;99.90
24049;DHT22;12250;50.956;4.746;2023-07-31T07:52:35;19.40;99.90
24049;DHT22;12250;50.956;4.746;2023-07-31T07:55:01;19.20;99.90
24049;DHT22;12250;50.956;4.746;2023-07-31T07:57:27;19.20;99.90
24049;DHT22;12250;50.956;4.746;2023-07-31T07:59:53;19.20;99.90
24049;DHT22;12250;50.956;4.746;2023-07-31T08:02:19;19.30;99.90
24049;DHT22;12250;50.956;4.746;2023-07-31T08:04:45;19.30;99.90
24049;DHT22;12250;50.956;4.746;2023-07-31T08:07:11;19.30;99.90
24049;DHT22;12250;50.956;4.746;2023-07-31T08:09:37;19.40;99.90
24049;DHT22;12250;50.956;4.746;2023-07-31T08:12:04;19.40;99.90
24049;DHT22;12250;50.956;4.746;2023-07-31T08:14:30;19.40;99.90
24049;DHT22;12250;50.956;4.746;2023-07-31T08:16:56;19.40;99.90
24049;DHT22;12250;50.956;4.746;2023-07-31T08:19:21;19.30;99.90
24049;DHT22;12250;50.956;4.746;2023-07-31T08:21:47;19.40;99.90
24049;DHT22;12250;50.956;4.746;2023-07-31T08:24:13;19.50;99.90
24049;DHT22;12250;50.956;4.746;2023-07-31T08:26:38;19.80;99.90
24049;DHT22;12250;50.956;4.746;2023-07-31T08:29:04;20.10;99.90
24049;DHT22;12250;50.956;4.746;2023-07-31T08:31:30;20.20;99.90
24049;DHT22;12250;50.956;4.746;2023-07-31T08:33:56;20.20;99.90
24049;DHT22;12250;50.956;4.746;2023-07-31T08:36:22;20.30;99.90
24049;DHT22;12250;50.956;4.746;2023-07-31T08:38:47;20.40;99.90
24049;DHT22;12250;50.956;4.746;2023-07-31T08:41:13;20.50;99.90
24049;DHT22;12250;50.956;4.746;2023-07-31T08:43:39;20.70;99.90
24049;DHT22;12250;50.956;4.746;2023-07-31T08:46:05;20.70;99.90
24049;DHT22;12250;50.956;4.746;2023-07-31T08:48:32;20.60;99.90
24049;DHT22;12250;50.956;4.746;2023-07-31T08:50:58;20.30;99.90
24049;DHT22;12250;50.956;4.746;2023-07-31T08:53:24;20.00;99.90
24049;DHT22;12250;50.956;4.746;2023-07-31T08:55:52;20.00;99.90
24049;DHT22;12250;50.956;4.746;2023-07-31T08:58:19;20.00;99.90
24049;DHT22;12250;50.956;4.746;2023-07-31T09:00:46;20.00;99.90
24049;DHT22;12250;50.956;4.746;2023-07-31T09:03:17;20.00;99.90
24049;DHT22;12250;50.956;4.746;2023-07-31T09:05:45;20.10;99.90
24049;DHT22;12250;50.956;4.746;2023-07-31T09:08:18;20.20;99.90
24049;DHT22;12250;50.956;4.746;2023-07-31T09:10:45;20.20;99.90
24049;DHT22;12250;50.956;4.746;2023-07-31T09:13:12;20.30;99.90
24049;DHT22;12250;50.956;4.746;2023-07-31T09:15:39;20.30;99.90
24049;DHT22;12250;50.956;4.746;2023-07-31T09:18:06;20.30;99.90
24049;DHT22;12250;50.956;4.746;2023-07-31T09:20:32;20.30;99.90
24049;DHT22;12250;50.956;4.746;2023-07-31T09:23:12;20.40;99.90
24049;DHT22;12250;50.956;4.746;2023-07-31T09:25:39;20.50;99.90
24049;DHT22;12250;50.956;4.746;2023-07-31T09:28:10;20.50;99.90
24049;DHT22;12250;50.956;4.746;2023-07-31T09:30:50;20.40;99.90
24049;DHT22;12250;50.956;4.746;2023-07-31T09:33:17;20.30;99.90
24049;DHT22;12250;50.956;4.746;2023-07-31T09:35:42;20.40;99.90
24049;DHT22;12250;50.956;4.746;2023-07-31T09:38:10;20.50;99.90
24049;DHT22;12250;50.956;4.746;2023-07-31T09:40:38;20.60;99.90
24049;DHT22;12250;50.956;4.746;2023-07-31T09:43:06;20.50;99.90
24049;DHT22;12250;50.956;4.746;2023-07-31T09:45:40;20.50;99.90
24049;DHT22;12250;50.956;4.746;2023-07-31T09:48:10;20.80;99.90
24049;DHT22;12250;50.956;4.746;2023-07-31T09:50:41;21.10;99.90
24049;DHT22;12250;50.956;4.746;2023-07-31T09:53:08;21.40;99.90
24049;DHT22;12250;50.956;4.746;2023-07-31T09:55:35;21.80;99.90
24049;DHT22;12250;50.956;4.746;2023-07-31T09:58:06;22.10;99.90
24049;DHT22;12250;50.956;4.746;2023-07-31T10:00:33;22.50;99.90
24049;DHT22;12250;50.956;4.746;2023-07-31T10:03:01;22.60;99.90
24049;DHT22;12250;50.956;4.746;2023-07-31T10:05:42;22.40;99.90
24049;DHT22;12250;50.956;4.746;2023-07-31T10:08:09;22.40;99.90
24049;DHT22;12250;50.956;4.746;2023-07-31T10:10:36;22.50;99.90
24049;DHT22;12250;50.956;4.746;2023-07-31T10:13:02;22.50;99.90
24049;DHT22;12250;50.956;4.746;2023-07-31T10:15:28;22.60;99.90
24049;DHT22;12250;50.956;4.746;2023-07-31T10:17:55;22.70;99.90
24049;DHT22;12250;50.956;4.746;2023-07-31T10:20:21;22.70;99.90
24049;DHT22;12250;50.956;4.746;2023-07-31T10:22:48;22.80;99.90
24049;DHT22;12250;50.956;4.746;2023-07-31T10:25:15;22.90;99.90
24049;DHT22;12250;50.956;4.746;2023-07-31T10:27:42;22.90;99.90
24049;DHT22;12250;50.956;4.746;2023-07-31T10:30:11;22.90;99.90
24049;DHT22;12250;50.956;4.746;2023-07-31T10:32:39;22.50;99.90
24049;DHT22;12250;50.956;4.746;2023-07-31T10:35:07;22.60;99.90
24049;DHT22;12250;50.956;4.746;2023-07-31T10:37:40;22.90;99.90
24049;DHT22;12250;50.956;4.746;2023-07-31T10:42:47;23.80;99.90
24049;DHT22;12250;50.956;4.746;2023-07-31T10:45:23;24.00;99.90
24049;DHT22;12250;50.956;4.746;2023-07-31T10:47:49;23.90;99.90
24049;DHT22;12250;50.956;4.746;2023-07-31T10:50:20;23.50;99.90
24049;DHT22;12250;50.956;4.746;2023-07-31T10:52:48;23.00;99.90
24049;DHT22;12250;50.956;4.746;2023-07-31T10:55:41;23.00;99.90
24049;DHT22;12250;50.956;4.746;2023-07-31T10:58:09;22.80;99.90
24049;DHT22;12250;50.956;4.746;2023-07-31T11:00:43;22.80;99.90
24049;DHT22;12250;50.956;4.746;2023-07-31T11:03:19;22.80;99.90
24049;DHT22;12250;50.956;4.746;2023-07-31T11:05:49;22.40;99.90
24049;DHT22;12250;50.956;4.746;2023-07-31T11:08:28;22.30;99.90
24049;DHT22;12250;50.956;4.746;2023-07-31T11:13:34;22.20;99.90
24049;DHT22;12250;50.956;4.746;2023-07-31T11:16:04;22.50;99.90
24049;DHT22;12250;50.956;4.746;2023-07-31T11:18:30;22.90;99.90
24049;DHT22;12250;50.956;4.746;2023-07-31T11:20:55;23.30;99.90
24049;DHT22;12250;50.956;4.746;2023-07-31T11:23:22;23.50;99.90
24049;DHT22;12250;50.956;4.746;2023-07-31T11:25:49;23.70;99.90
24049;DHT22;12250;50.956;4.746;2023-07-31T11:28:17;23.60;99.90
24049;DHT22;12250;50.956;4.746;2023-07-31T11:30:44;23.70;99.90
24049;DHT22;12250;50.956;4.746;2023-07-31T11:33:11;24.20;99.90
24049;DHT22;12250;50.956;4.746;2023-07-31T11:35:48;24.50;99.90
24049;DHT22;12250;50.956;4.746;2023-07-31T11:38:28;24.40;99.90
24049;DHT22;12250;50.956;4.746;2023-07-31T11:40:56;24.50;99.90
24049;DHT22;12250;50.956;4.746;2023-07-31T11:43:23;24.60;99.90
24049;DHT22;12250;50.956;4.746;2023-07-31T11:45:51;24.50;99.90
24049;DHT22;12250;50.956;4.746;2023-07-31T11:48:30;24.50;99.90
24049;DHT22;12250;50.956;4.746;2023-07-31T11:51:00;24.60;99.90
24049;DHT22;12250;50.956;4.746;2023-07-31T11:53:40;24.80;99.90
24049;DHT22;12250;50.956;4.746;2023-07-31T11:56:10;24.60;99.90
24049;DHT22;12250;50.956;4.746;2023-07-31T11:58:37;24.60;99.90
24049;DHT22;12250;50.956;4.746;2023-07-31T12:01:04;24.50;99.90
24049;DHT22;12250;50.956;4.746;2023-07-31T12:03:31;24.40;99.90
24049;DHT22;12250;50.956;4.746;2023-07-31T12:05:58;23.80;99.90
24049;DHT22;12250;50.956;4.746;2023-07-31T12:08:24;23.40;99.90
24049;DHT22;12250;50.956;4.746;2023-07-31T12:10:51;23.20;99.90
24049;DHT22;12250;50.956;4.746;2023-07-31T12:13:22;22.90;99.90
24049;DHT22;12250;50.956;4.746;2023-07-31T12:15:48;22.90;99.90
24049;DHT22;12250;50.956;4.746;2023-07-31T12:18:21;22.90;99.90
24049;DHT22;12250;50.956;4.746;2023-07-31T12:20:49;23.10;99.90
24049;DHT22;12250;50.956;4.746;2023-07-31T12:23:24;23.20;99.90
24049;DHT22;12250;50.956;4.746;2023-07-31T12:28:44;24.20;99.90
24049;DHT22;12250;50.956;4.746;2023-07-31T12:31:12;24.30;99.90
24049;DHT22;12250;50.956;4.746;2023-07-31T12:33:40;24.10;99.90
24049;DHT22;12250;50.956;4.746;2023-07-31T12:36:11;23.90;99.90
24049;DHT22;12250;50.956;4.746;2023-07-31T12:38:37;23.70;99.90
24049;DHT22;12250;50.956;4.746;2023-07-31T12:41:02;23.50;99.90
24049;DHT22;12250;50.956;4.746;2023-07-31T12:43:28;23.40;99.90
24049;DHT22;12250;50.956;4.746;2023-07-31T12:45:54;23.30;99.90
24049;DHT22;12250;50.956;4.746;2023-07-31T12:48:21;23.30;99.90
24049;DHT22;12250;50.956;4.746;2023-07-31T12:50:47;23.60;99.90
24049;DHT22;12250;50.956;4.746;2023-07-31T12:53:14;23.80;99.90
24049;DHT22;12250;50.956;4.746;2023-07-31T12:55:40;23.90;99.90
24049;DHT22;12250;50.956;4.746;2023-07-31T12:58:06;24.00;99.90
24049;DHT22;12250;50.956;4.746;2023-07-31T13:00:31;23.90;99.90
24049;DHT22;12250;50.956;4.746;2023-07-31T13:02:57;23.80;99.90
24049;DHT22;12250;50.956;4.746;2023-07-31T13:05:23;23.60;99.90
24049;DHT22;12250;50.956;4.746;2023-07-31T13:07:49;23.40;99.90
24049;DHT22;12250;50.956;4.746;2023-07-31T13:10:15;23.60;99.90
24049;DHT22;12250;50.956;4.746;2023-07-31T13:12:40;23.80;99.90
24049;DHT22;12250;50.956;4.746;2023-07-31T13:15:07;23.80;99.90
24049;DHT22;12250;50.956;4.746;2023-07-31T13:17:32;23.50;99.90
24049;DHT22;12250;50.956;4.746;2023-07-31T13:19:59;23.30;99.90
24049;DHT22;12250;50.956;4.746;2023-07-31T13:22:25;23.20;99.90
24049;DHT22;12250;50.956;4.746;2023-07-31T13:24:51;23.20;99.90
24049;DHT22;12250;50.956;4.746;2023-07-31T13:27:16;23.10;99.90
24049;DHT22;12250;50.956;4.746;2023-07-31T13:29:44;22.90;99.90
24049;DHT22;12250;50.956;4.746;2023-07-31T13:32:10;22.70;99.90
24049;DHT22;12250;50.956;4.746;2023-07-31T13:34:36;22.50;99.90
24049;DHT22;12250;50.956;4.746;2023-07-31T13:37:02;22.30;99.90
24049;DHT22;12250;50.956;4.746;2023-07-31T13:39:28;22.10;99.90
24049;DHT22;12250;50.956;4.746;2023-07-31T13:41:53;21.90;99.90
24049;DHT22;12250;50.956;4.746;2023-07-31T13:44:19;21.90;99.90
24049;DHT22;12250;50.956;4.746;2023-07-31T13:46:45;21.60;99.90
24049;DHT22;12250;50.956;4.746;2023-07-31T13:49:10;21.30;99.90
24049;DHT22;12250;50.956;4.746;2023-07-31T13:51:36;20.90;99.90
24049;DHT22;12250;50.956;4.746;2023-07-31T13:54:03;20.60;99.90
24049;DHT22;12250;50.956;4.746;2023-07-31T13:56:29;20.30;99.90
24049;DHT22;12250;50.956;4.746;2023-07-31T13:58:54;20.10;99.90
24049;DHT22;12250;50.956;4.746;2023-07-31T14:01:20;19.90;99.90
24049;DHT22;12250;50.956;4.746;2023-07-31T14:03:45;19.70;99.90
24049;DHT22;12250;50.956;4.746;2023-07-31T14:06:11;19.60;99.90
24049;DHT22;12250;50.956;4.746;2023-07-31T14:08:37;19.60;99.90
24049;DHT22;12250;50.956;4.746;2023-07-31T14:11:02;19.60;99.90
24049;DHT22;12250;50.956;4.746;2023-07-31T14:13:28;19.50;99.90
24049;DHT22;12250;50.956;4.746;2023-07-31T14:15:53;19.50;99.90
24049;DHT22;12250;50.956;4.746;2023-07-31T14:18:19;19.60;99.90
24049;DHT22;12250;50.956;4.746;2023-07-31T14:20:45;19.60;99.90
24049;DHT22;12250;50.956;4.746;2023-07-31T14:23:11;19.70;99.90
24049;DHT22;12250;50.956;4.746;2023-07-31T14:25:36;19.70;99.90
24049;DHT22;12250;50.956;4.746;2023-07-31T14:28:02;19.70;99.90
24049;DHT22;12250;50.956;4.746;2023-07-31T14:30:28;19.70;99.90
24049;DHT22;12250;50.956;4.746;2023-07-31T14:32:53;19.70;99.90
24049;DHT22;12250;50.956;4.746;2023-07-31T14:35:19;19.60;99.90
24049;DHT22;12250;50.956;4.746;2023-07-31T14:37:46;19.50;99.90
24049;DHT22;12250;50.956;4.746;2023-07-31T14:40:12;19.50;99.90
24049;DHT22;12250;50.956;4.746;2023-07-31T14:42:39;19.30;99.90
24049;DHT22;12250;50.956;4.746;2023-07-31T14:45:06;19.30;99.90
24049;DHT22;12250;50.956;4.746;2023-07-31T14:47:32;19.30;99.90
24049;DHT22;12250;50.956;4.746;2023-07-31T14:49:59;19.40;99.90
24049;DHT22;12250;50.956;4.746;2023-07-31T14:52:25;19.40;99.90
24049;DHT22;12250;50.956;4.746;2023-07-31T14:54:51;19.50;99.90
24049;DHT22;12250;50.956;4.746;2023-07-31T14:57:17;19.60;99.90
24049;DHT22;12250;50.956;4.746;2023-07-31T14:59:43;19.40;99.90
24049;DHT22;12250;50.956;4.746;2023-07-31T15:02:09;19.30;99.90
24049;DHT22;12250;50.956;4.746;2023-07-31T15:04:35;19.30;99.90
24049;DHT22;12250;50.956;4.746;2023-07-31T15:07:01;19.30;99.90
24049;DHT22;12250;50.956;4.746;2023-07-31T15:09:28;19.30;99.90
24049;DHT22;12250;50.956;4.746;2023-07-31T15:11:55;19.30;99.90
24049;DHT22;12250;50.956;4.746;2023-07-31T15:14:21;19.20;99.90
24049;DHT22;12250;50.956;4.746;2023-07-31T15:16:46;19.10;99.90
24049;DHT22;12250;50.956;4.746;2023-07-31T15:19:12;19.10;99.90
24049;DHT22;12250;50.956;4.746;2023-07-31T15:21:38;19.10;99.90
24049;DHT22;12250;50.956;4.746;2023-07-31T15:24:04;19.00;99.90
24049;DHT22;12250;50.956;4.746;2023-07-31T15:26:30;19.00;99.90
24049;DHT22;12250;50.956;4.746;2023-07-31T15:29:04;19.00;99.90
24049;DHT22;12250;50.956;4.746;2023-07-31T15:31:40;19.00;99.90
24049;DHT22;12250;50.956;4.746;2023-07-31T15:34:06;19.00;99.90
24049;DHT22;12250;50.956;4.746;2023-07-31T15:36:32;18.90;99.90
24049;DHT22;12250;50.956;4.746;2023-07-31T15:38:57;18.90;99.90
24049;DHT22;12250;50.956;4.746;2023-07-31T15:41:23;18.90;99.90
24049;DHT22;12250;50.956;4.746;2023-07-31T15:43:50;18.90;99.90
24049;DHT22;12250;50.956;4.746;2023-07-31T15:46:17;18.80;99.90